createdAt,value
2017-11-01T00:00:33.383Z,4.90
2017-11-01T00:01:33.996Z,4.93
2017-11-01T00:02:34.604Z,4.90
2017-11-01T00:03:35.208Z,4.90
2017-11-01T00:04:35.819Z,4.94
2017-11-01T00:05:36.454Z,4.92
2017-11-01T00:06:37.062Z,4.84
2017-11-01T00:07:37.667Z,4.90
2017-11-01T00:08:38.274Z,4.90
2017-11-01T00:09:38.882Z,4.80
2017-11-01T00:10:39.490Z,4.89
2017-11-01T00:11:40.100Z,4.89
2017-11-01T00:12:40.707Z,4.90
2017-11-01T00:13:41.320Z,4.82
2017-11-01T00:14:41.924Z,4.86
2017-11-01T00:15:42.537Z,4.92
2017-11-01T00:16:43.142Z,4.93
2017-11-01T00:17:43.747Z,4.93
2017-11-01T00:18:44.354Z,4.96
2017-11-01T00:19:44.960Z,4.93
2017-11-01T00:20:45.566Z,4.89
2017-11-01T00:21:46.175Z,4.96
2017-11-01T00:22:46.787Z,4.97
2017-11-01T00:23:47.399Z,4.92
2017-11-01T00:24:48.008Z,4.84
2017-11-01T00:25:48.618Z,4.86
2017-11-01T00:26:49.222Z,4.80
2017-11-01T00:27:49.834Z,4.82
2017-11-01T00:28:50.437Z,4.84
2017-11-01T00:29:51.048Z,4.84
2017-11-01T00:30:51.681Z,4.80
2017-11-01T00:31:52.287Z,4.86
2017-11-01T00:32:52.894Z,4.84
2017-11-01T00:33:53.501Z,4.84
2017-11-01T00:34:54.136Z,4.80
2017-11-01T00:35:54.743Z,4.68
2017-11-01T00:36:55.352Z,4.67
2017-11-01T00:37:55.956Z,4.71
2017-11-01T00:38:56.562Z,4.67
2017-11-01T00:39:57.171Z,4.77
2017-11-01T00:40:57.778Z,4.68
2017-11-01T00:41:58.393Z,4.70
2017-11-01T00:42:59.031Z,4.82
2017-11-01T00:43:59.638Z,4.71
2017-11-01T00:45:00.244Z,4.75
2017-11-01T00:46:00.850Z,4.73
2017-11-01T00:47:01.458Z,4.66
2017-11-01T00:48:02.101Z,4.73
2017-11-01T00:49:02.702Z,4.78
2017-11-01T00:50:03.308Z,4.75
2017-11-01T00:51:03.921Z,4.73
2017-11-01T00:52:04.558Z,4.73
2017-11-01T00:53:05.165Z,4.67
2017-11-01T00:54:05.772Z,4.77
2017-11-01T00:55:06.380Z,4.78
2017-11-01T00:56:06.986Z,4.82
2017-11-01T00:57:07.592Z,4.80
2017-11-01T00:58:08.200Z,4.80
2017-11-01T00:59:08.804Z,4.84
2017-11-01T01:00:09.411Z,4.92
2017-11-01T01:01:10.025Z,4.82
2017-11-01T01:02:10.638Z,4.84
2017-11-01T01:03:11.238Z,4.82
2017-11-01T01:04:11.844Z,4.92
2017-11-01T01:05:12.502Z,4.82
2017-11-01T01:06:13.112Z,4.89
2017-11-01T01:07:13.715Z,4.82
2017-11-01T01:08:14.322Z,4.87
2017-11-01T01:09:14.928Z,4.84
2017-11-01T01:10:15.542Z,4.90
2017-11-01T01:11:16.154Z,4.86
2017-11-01T01:12:16.761Z,4.82
2017-11-01T01:13:17.365Z,4.89
2017-11-01T01:14:17.971Z,4.77
2017-11-01T01:15:18.579Z,4.84
2017-11-01T01:16:19.191Z,4.82
2017-11-01T01:17:19.801Z,4.82
2017-11-01T01:18:20.436Z,4.84
2017-11-01T01:19:21.042Z,4.84
2017-11-01T01:20:21.653Z,4.80
2017-11-01T01:21:22.257Z,4.82
2017-11-01T01:22:22.869Z,4.80
2017-11-01T01:23:23.474Z,4.78
2017-11-01T01:24:24.082Z,4.82
2017-11-01T01:25:24.696Z,4.92
2017-11-01T01:26:25.300Z,4.82
2017-11-01T01:27:25.914Z,4.90
2017-11-01T01:28:26.524Z,4.75
2017-11-01T01:29:27.124Z,4.74
2017-11-01T01:30:27.736Z,4.80
2017-11-01T01:31:28.344Z,4.71
2017-11-01T01:32:28.950Z,4.77
2017-11-01T01:33:29.587Z,4.67
2017-11-01T01:34:30.198Z,4.68
2017-11-01T01:35:30.839Z,4.68
2017-11-01T01:36:31.447Z,4.68
2017-11-01T01:37:32.049Z,4.73
2017-11-01T01:38:32.663Z,4.67
2017-11-01T01:39:33.267Z,4.66
2017-11-01T01:40:33.881Z,4.62
2017-11-01T01:41:34.484Z,4.86
2017-11-01T01:42:35.092Z,4.70
2017-11-01T01:43:35.697Z,4.73
2017-11-01T01:44:36.303Z,4.68
2017-11-01T01:45:36.910Z,4.66
2017-11-01T01:46:37.515Z,4.71
2017-11-01T01:47:38.121Z,4.68
2017-11-01T01:48:38.728Z,4.71
2017-11-01T01:49:39.341Z,4.68
2017-11-01T01:50:39.944Z,4.71
2017-11-01T01:51:40.557Z,4.74
2017-11-01T01:52:41.160Z,4.68
2017-11-01T01:53:41.766Z,4.86
2017-11-01T01:54:42.377Z,4.82
2017-11-01T01:55:42.989Z,4.68
2017-11-01T01:56:43.625Z,4.67
2017-11-01T01:57:44.233Z,4.68
2017-11-01T01:58:44.872Z,4.70
2017-11-01T01:59:45.482Z,4.70
2017-11-01T02:00:46.086Z,4.63
2017-11-01T02:01:46.692Z,4.67
2017-11-01T02:02:47.296Z,4.62
2017-11-01T02:03:47.904Z,4.70
2017-11-01T02:04:48.510Z,4.67
2017-11-01T02:05:49.115Z,4.63
2017-11-01T02:06:49.724Z,4.63
2017-11-01T02:07:50.332Z,4.70
2017-11-01T02:08:50.940Z,4.71
2017-11-01T02:09:51.547Z,4.67
2017-11-01T02:10:52.186Z,4.73
2017-11-01T02:11:52.829Z,4.68
2017-11-01T02:12:53.439Z,4.67
2017-11-01T02:13:54.049Z,4.67
2017-11-01T02:14:54.652Z,4.62
2017-11-01T02:15:55.265Z,4.67
2017-11-01T02:16:55.868Z,4.60
2017-11-01T02:17:56.476Z,4.67
2017-11-01T02:18:57.081Z,4.59
2017-11-01T02:19:57.688Z,4.58
2017-11-01T02:20:58.293Z,4.52
2017-11-01T02:21:58.905Z,4.59
2017-11-01T02:22:59.510Z,4.50
2017-11-01T02:24:00.118Z,4.50
2017-11-01T02:25:00.727Z,4.58
2017-11-01T02:26:01.338Z,4.52
2017-11-01T02:27:01.941Z,4.52
2017-11-01T02:28:02.580Z,4.62
2017-11-01T02:29:03.190Z,4.56
2017-11-01T02:30:03.792Z,4.62
2017-11-01T02:31:04.404Z,4.58
2017-11-01T02:32:05.010Z,4.55
2017-11-01T02:33:05.615Z,4.58
2017-11-01T02:34:06.222Z,4.58
2017-11-01T02:35:06.829Z,4.55
2017-11-01T02:36:07.433Z,4.59
2017-11-01T02:37:08.069Z,4.63
2017-11-01T02:38:08.675Z,4.62
2017-11-01T02:39:09.280Z,4.60
2017-11-01T02:40:09.914Z,4.60
2017-11-01T02:41:10.526Z,4.58
2017-11-01T02:42:11.185Z,4.58
2017-11-01T02:43:11.810Z,4.58
2017-11-01T02:44:12.417Z,4.60
2017-11-01T02:45:13.023Z,4.62
2017-11-01T02:46:13.629Z,4.63
2017-11-01T02:47:14.234Z,4.70
2017-11-01T02:48:14.840Z,4.66
2017-11-01T02:49:15.446Z,4.62
2017-11-01T02:50:16.053Z,4.62
2017-11-01T02:51:16.658Z,4.66
2017-11-01T02:52:17.300Z,4.55
2017-11-01T02:53:17.903Z,4.59
2017-11-01T02:54:18.510Z,4.56
2017-11-01T02:55:19.119Z,4.53
2017-11-01T02:56:19.722Z,4.53
2017-11-01T02:57:20.336Z,4.52
2017-11-01T02:58:20.944Z,4.48
2017-11-01T02:59:21.553Z,4.53
2017-11-01T03:00:22.155Z,4.55
2017-11-01T03:01:22.769Z,4.48
2017-11-01T03:02:23.377Z,4.58
2017-11-01T03:03:24.020Z,4.55
2017-11-01T03:04:24.623Z,4.55
2017-11-01T03:05:25.232Z,4.52
2017-11-01T03:06:25.840Z,4.56
2017-11-01T03:07:26.444Z,4.59
2017-11-01T03:08:27.057Z,4.55
2017-11-01T03:09:27.661Z,4.52
2017-11-01T03:10:28.304Z,4.58
2017-11-01T03:11:28.908Z,4.55
2017-11-01T03:12:29.516Z,4.55
2017-11-01T03:13:30.123Z,4.55
2017-11-01T03:14:30.730Z,4.55
2017-11-01T03:15:31.339Z,4.53
2017-11-01T03:16:31.943Z,4.50
2017-11-01T03:17:32.550Z,4.50
2017-11-01T03:18:33.185Z,4.55
2017-11-01T03:19:33.791Z,4.59
2017-11-01T03:20:34.403Z,4.50
2017-11-01T03:21:35.006Z,4.56
2017-11-01T03:22:35.611Z,4.58
2017-11-01T03:23:36.245Z,4.55
2017-11-01T03:24:36.851Z,4.56
2017-11-01T03:25:37.458Z,4.53
2017-11-01T03:26:38.063Z,4.56
2017-11-01T03:27:38.675Z,4.50
2017-11-01T03:28:39.279Z,4.58
2017-11-01T03:29:39.914Z,4.55
2017-11-01T03:30:40.520Z,4.58
2017-11-01T03:31:41.127Z,4.59
2017-11-01T03:32:41.734Z,4.56
2017-11-01T03:33:42.339Z,4.63
2017-11-01T03:34:42.944Z,4.63
2017-11-01T03:35:43.552Z,4.53
2017-11-01T03:36:44.157Z,4.59
2017-11-01T03:37:44.763Z,4.58
2017-11-01T03:38:45.374Z,4.58
2017-11-01T03:39:46.010Z,4.59
2017-11-01T03:40:46.621Z,4.60
2017-11-01T03:41:47.226Z,4.63
2017-11-01T03:42:47.840Z,4.67
2017-11-01T03:43:48.448Z,4.63
2017-11-01T03:44:49.052Z,4.60
2017-11-01T03:45:49.665Z,4.53
2017-11-01T03:46:50.275Z,4.59
2017-11-01T03:47:50.874Z,4.62
2017-11-01T03:48:51.509Z,4.60
2017-11-01T03:49:52.121Z,4.66
2017-11-01T03:50:52.725Z,4.70
2017-11-01T03:51:53.331Z,4.63
2017-11-01T03:52:53.966Z,4.70
2017-11-01T03:53:54.579Z,4.71
2017-11-01T03:54:55.181Z,4.67
2017-11-01T03:55:55.815Z,4.60
2017-11-01T03:56:56.422Z,4.63
2017-11-01T03:57:57.058Z,4.55
2017-11-01T03:58:57.670Z,4.52
2017-11-01T03:59:58.274Z,4.59
2017-11-01T04:00:58.879Z,4.52
2017-11-01T04:01:59.488Z,4.50
2017-11-01T04:03:00.093Z,4.62
2017-11-01T04:04:00.700Z,4.59
2017-11-01T04:05:01.333Z,4.48
2017-11-01T04:06:01.940Z,4.56
2017-11-01T04:07:02.547Z,4.49
2017-11-01T04:08:03.155Z,4.44
2017-11-01T04:09:03.794Z,4.42
2017-11-01T04:10:04.404Z,4.48
2017-11-01T04:11:05.039Z,4.42
2017-11-01T04:12:05.645Z,4.52
2017-11-01T04:13:06.253Z,4.56
2017-11-01T04:14:06.859Z,4.53
2017-11-01T04:15:07.466Z,4.56
2017-11-01T04:16:08.071Z,4.55
2017-11-01T04:17:08.679Z,4.45
2017-11-01T04:18:09.284Z,4.50
2017-11-01T04:19:09.899Z,4.56
2017-11-01T04:20:10.528Z,4.53
2017-11-01T04:21:11.135Z,4.50
2017-11-01T04:22:11.772Z,4.52
2017-11-01T04:23:12.377Z,4.63
2017-11-01T04:24:12.984Z,4.53
2017-11-01T04:25:13.618Z,4.62
2017-11-01T04:26:14.231Z,4.66
2017-11-01T04:27:14.839Z,4.67
2017-11-01T04:28:15.442Z,4.66
2017-11-01T04:29:16.048Z,4.66
2017-11-01T04:30:16.653Z,4.68
2017-11-01T04:31:17.261Z,4.62
2017-11-01T04:32:17.866Z,4.70
2017-11-01T04:33:18.475Z,4.67
2017-11-01T04:34:19.088Z,4.63
2017-11-01T04:35:19.692Z,4.70
2017-11-01T04:36:20.300Z,4.63
2017-11-01T04:37:20.912Z,4.68
2017-11-01T04:38:21.542Z,4.67
2017-11-01T04:39:22.154Z,4.66
2017-11-01T04:40:22.758Z,4.68
2017-11-01T04:41:23.364Z,4.71
2017-11-01T04:42:23.969Z,4.67
2017-11-01T04:43:24.583Z,4.73
2017-11-01T04:44:25.184Z,4.67
2017-11-01T04:45:25.799Z,4.67
2017-11-01T04:46:26.401Z,4.75
2017-11-01T04:47:27.009Z,4.77
2017-11-01T04:48:27.617Z,4.80
2017-11-01T04:49:28.220Z,4.75
2017-11-01T04:50:28.864Z,4.70
2017-11-01T04:51:29.467Z,4.73
2017-11-01T04:52:30.072Z,4.82
2017-11-01T04:53:30.712Z,4.82
2017-11-01T04:54:31.319Z,4.75
2017-11-01T04:55:31.962Z,4.80
2017-11-01T04:56:32.568Z,4.86
2017-11-01T04:57:33.223Z,4.71
2017-11-01T04:58:33.836Z,4.84
2017-11-01T04:59:34.445Z,4.86
2017-11-01T05:00:35.048Z,4.90
2017-11-01T05:01:35.684Z,4.78
2017-11-01T05:02:36.321Z,4.86
2017-11-01T05:03:36.933Z,4.97
2017-11-01T05:04:37.535Z,4.80
2017-11-01T05:05:38.147Z,4.86
2017-11-01T05:06:38.782Z,4.84
2017-11-01T05:07:39.388Z,4.82
2017-11-01T05:08:40.031Z,4.89
2017-11-01T05:09:40.633Z,4.86
2017-11-01T05:10:41.239Z,4.82
2017-11-01T05:11:41.845Z,4.86
2017-11-01T05:12:42.458Z,4.84
2017-11-01T05:13:43.062Z,4.68
2017-11-01T05:14:43.667Z,4.73
2017-11-01T05:15:44.274Z,4.77
2017-11-01T05:16:44.884Z,4.73
2017-11-01T05:17:45.516Z,4.67
2017-11-01T05:18:46.122Z,4.70
2017-11-01T05:19:46.733Z,4.77
2017-11-01T05:20:47.338Z,4.74
2017-11-01T05:21:47.943Z,4.86
2017-11-01T05:22:48.580Z,4.90
2017-11-01T05:23:49.191Z,4.82
2017-11-01T05:24:49.795Z,4.80
2017-11-01T05:25:50.410Z,4.92
2017-11-01T05:26:51.013Z,4.84
2017-11-01T05:27:51.620Z,4.82
2017-11-01T05:28:52.225Z,4.82
2017-11-01T05:29:52.863Z,4.82
2017-11-01T05:30:53.470Z,4.86
2017-11-01T05:31:54.081Z,4.84
2017-11-01T05:32:54.685Z,4.82
2017-11-01T05:33:55.293Z,4.80
2017-11-01T05:34:55.927Z,4.89
2017-11-01T05:35:56.533Z,4.92
2017-11-01T05:36:57.139Z,4.86
2017-11-01T05:37:57.750Z,4.87
2017-11-01T05:38:58.355Z,4.80
2017-11-01T05:39:58.961Z,4.84
2017-11-01T05:40:59.571Z,4.89
2017-11-01T05:42:00.206Z,4.89
2017-11-01T05:43:00.816Z,4.90
2017-11-01T05:44:01.426Z,4.94
2017-11-01T05:45:02.028Z,4.92
2017-11-01T05:46:02.639Z,4.97
2017-11-01T05:47:03.247Z,4.94
2017-11-01T05:48:03.852Z,4.93
2017-11-01T05:49:04.460Z,4.99
2017-11-01T05:50:05.069Z,4.99
2017-11-01T05:51:05.706Z,4.84
2017-11-01T05:52:06.314Z,4.89
2017-11-01T05:53:06.957Z,4.82
2017-11-01T05:54:07.562Z,4.87
2017-11-01T05:55:08.175Z,4.92
2017-11-01T05:56:08.817Z,4.80
2017-11-01T05:57:09.422Z,4.89
2017-11-01T05:58:10.028Z,4.87
2017-11-01T05:59:10.640Z,4.86
2017-11-01T06:00:11.276Z,4.86
2017-11-01T06:01:11.883Z,4.70
2017-11-01T06:02:12.488Z,4.73
2017-11-01T06:03:13.095Z,4.80
2017-11-01T06:04:13.701Z,4.84
2017-11-01T06:05:14.336Z,4.86
2017-11-01T06:06:14.944Z,4.75
2017-11-01T06:07:15.548Z,4.74
2017-11-01T06:08:16.184Z,4.80
2017-11-01T06:09:16.796Z,4.84
2017-11-01T06:10:17.406Z,4.84
2017-11-01T06:11:18.047Z,4.89
2017-11-01T06:12:18.660Z,4.84
2017-11-01T06:13:19.290Z,4.80
2017-11-01T06:14:19.895Z,4.78
2017-11-01T06:15:20.508Z,4.89
2017-11-01T06:16:21.118Z,4.94
2017-11-01T06:17:21.722Z,4.94
2017-11-01T06:18:22.331Z,4.94
2017-11-01T06:19:22.934Z,4.97
2017-11-01T06:20:23.541Z,4.94
2017-11-01T06:21:24.148Z,5.00
2017-11-01T06:22:24.758Z,4.94
2017-11-01T06:23:25.368Z,4.92
2017-11-01T06:24:25.974Z,4.97
2017-11-01T06:25:26.585Z,4.97
2017-11-01T06:26:27.191Z,4.92
2017-11-01T06:27:27.798Z,4.97
2017-11-01T06:28:28.410Z,4.97
2017-11-01T06:29:29.014Z,4.99
2017-11-01T06:30:29.628Z,4.90
2017-11-01T06:31:30.233Z,4.96
2017-11-01T06:32:30.842Z,4.96
2017-11-01T06:33:31.451Z,5.02
2017-11-01T06:34:32.058Z,4.99
2017-11-01T06:35:32.672Z,5.02
2017-11-01T06:36:33.276Z,5.00
2017-11-01T06:37:33.884Z,4.96
2017-11-01T06:38:34.496Z,5.00
2017-11-01T06:39:35.105Z,5.00
2017-11-01T06:40:35.714Z,5.05
2017-11-01T06:41:36.321Z,5.12
2017-11-01T06:42:36.927Z,5.07
2017-11-01T06:43:37.536Z,5.15
2017-11-01T06:44:38.177Z,5.14
2017-11-01T06:45:38.782Z,5.15
2017-11-01T06:46:39.396Z,5.20
2017-11-01T06:47:40.008Z,5.08
2017-11-01T06:48:40.607Z,5.17
2017-11-01T06:49:41.251Z,5.23
2017-11-01T06:50:41.856Z,5.18
2017-11-01T06:51:42.463Z,5.17
2017-11-01T06:52:43.070Z,5.18
2017-11-01T06:53:43.684Z,5.23
2017-11-01T06:54:44.289Z,5.20
2017-11-01T06:55:44.899Z,5.32
2017-11-01T06:56:45.505Z,5.32
2017-11-01T06:57:46.117Z,5.30
2017-11-01T06:58:46.728Z,5.35
2017-11-01T06:59:47.337Z,5.38
2017-11-01T07:00:47.941Z,5.35
2017-11-01T07:01:48.554Z,5.30
2017-11-01T07:02:49.197Z,5.36
2017-11-01T07:03:49.801Z,5.36
2017-11-01T07:04:50.416Z,5.33
2017-11-01T07:05:51.028Z,5.39
2017-11-01T07:06:51.632Z,5.43
2017-11-01T07:07:52.238Z,5.46
2017-11-01T07:08:52.853Z,5.47
2017-11-01T07:09:53.457Z,5.47
2017-11-01T07:10:54.068Z,5.44
2017-11-01T07:11:54.675Z,5.46
2017-11-01T07:12:55.291Z,5.43
2017-11-01T07:13:55.897Z,5.48
2017-11-01T07:14:56.502Z,5.48
2017-11-01T07:15:57.112Z,5.46
2017-11-01T07:16:57.720Z,5.44
2017-11-01T07:17:58.355Z,5.50
2017-11-01T07:18:58.964Z,5.48
2017-11-01T07:19:59.572Z,5.51
2017-11-01T07:21:00.179Z,5.48
2017-11-01T07:22:00.788Z,5.48
2017-11-01T07:23:01.425Z,5.46
2017-11-01T07:24:02.034Z,5.47
2017-11-01T07:25:02.643Z,5.47
2017-11-01T07:26:03.249Z,5.48
2017-11-01T07:27:03.857Z,5.48
2017-11-01T07:28:04.464Z,5.51
2017-11-01T07:29:05.074Z,5.51
2017-11-01T07:30:05.682Z,5.54
2017-11-01T07:31:06.293Z,5.57
2017-11-01T07:32:06.904Z,5.53
2017-11-01T07:33:07.515Z,5.51
2017-11-01T07:34:08.120Z,5.56
2017-11-01T07:35:08.727Z,5.65
2017-11-01T07:36:09.334Z,5.66
2017-11-01T07:37:09.941Z,5.69
2017-11-01T07:38:10.555Z,5.65
2017-11-01T07:39:11.162Z,5.66
2017-11-01T07:40:11.802Z,5.59
2017-11-01T07:41:12.442Z,5.68
2017-11-01T07:42:13.049Z,5.66
2017-11-01T07:43:13.660Z,5.66
2017-11-01T07:44:14.275Z,5.66
2017-11-01T07:45:14.879Z,5.65
2017-11-01T07:46:15.488Z,5.66
2017-11-01T07:47:16.103Z,5.69
2017-11-01T07:48:16.708Z,5.69
2017-11-01T07:49:17.317Z,5.71
2017-11-01T07:50:17.930Z,5.72
2017-11-01T07:51:18.570Z,5.76
2017-11-01T07:52:19.210Z,5.93
2017-11-01T07:53:19.825Z,5.99
2017-11-01T07:54:20.434Z,6.17
2017-11-01T07:55:21.047Z,6.24
2017-11-01T07:56:21.664Z,6.42
2017-11-01T07:57:22.308Z,6.57
2017-11-01T07:58:22.921Z,6.70
2017-11-01T07:59:23.536Z,6.78
2017-11-01T08:00:24.145Z,6.95
2017-11-01T08:01:24.754Z,7.10
2017-11-01T08:02:25.364Z,7.13
2017-11-01T08:03:25.975Z,7.33
2017-11-01T08:04:26.589Z,7.40
2017-11-01T08:05:27.197Z,7.51
2017-11-01T08:06:27.806Z,7.58
2017-11-01T08:07:28.448Z,7.60
2017-11-01T08:08:29.057Z,7.76
2017-11-01T08:09:29.671Z,7.77
2017-11-01T08:10:30.281Z,7.94
2017-11-01T08:11:30.896Z,8.01
2017-11-01T08:12:31.536Z,8.12
2017-11-01T08:13:32.147Z,8.00
2017-11-01T08:14:32.794Z,8.10
2017-11-01T08:15:33.408Z,8.15
2017-11-01T08:16:34.015Z,8.26
2017-11-01T08:17:34.625Z,8.36
2017-11-01T08:18:35.237Z,8.20
2017-11-01T08:19:35.849Z,8.36
2017-11-01T08:20:36.465Z,8.33
2017-11-01T08:21:37.072Z,8.37
2017-11-01T08:22:37.685Z,8.34
2017-11-01T08:23:38.330Z,8.33
2017-11-01T08:24:38.944Z,8.52
2017-11-01T08:25:39.552Z,8.49
2017-11-01T08:26:40.195Z,8.53
2017-11-01T08:27:40.805Z,8.64
2017-11-01T08:28:41.418Z,8.53
2017-11-01T08:29:42.059Z,8.61
2017-11-01T08:30:42.678Z,8.63
2017-11-01T08:31:43.286Z,8.67
2017-11-01T08:32:43.898Z,8.74
2017-11-01T08:33:44.544Z,8.71
2017-11-01T08:34:45.153Z,8.78
2017-11-01T08:35:45.764Z,8.82
2017-11-01T08:36:46.375Z,8.91
2017-11-01T08:37:46.987Z,8.91
2017-11-01T08:38:47.600Z,8.91
2017-11-01T08:39:48.213Z,9.02
2017-11-01T08:40:48.824Z,9.08
2017-11-01T08:41:49.440Z,9.00
2017-11-01T08:42:50.049Z,8.89
2017-11-01T08:43:50.665Z,8.94
2017-11-01T08:44:51.276Z,8.97
2017-11-01T08:45:51.893Z,9.00
2017-11-01T08:46:52.502Z,9.02
2017-11-01T08:47:53.116Z,9.13
2017-11-01T08:48:53.727Z,9.23
2017-11-01T08:49:54.338Z,9.37
2017-11-01T08:50:54.951Z,9.36
2017-11-01T08:51:55.598Z,9.32
2017-11-01T08:52:56.223Z,9.32
2017-11-01T08:53:56.824Z,9.39
2017-11-01T08:54:57.442Z,9.40
2017-11-01T08:55:58.057Z,9.47
2017-11-01T08:56:58.669Z,9.46
2017-11-01T08:57:59.297Z,9.47
2017-11-01T08:58:59.899Z,9.64
2017-11-01T09:00:00.510Z,9.64
2017-11-01T09:01:01.126Z,9.64
2017-11-01T09:02:01.768Z,9.72
2017-11-01T09:03:02.379Z,9.73
2017-11-01T09:04:02.991Z,9.80
2017-11-01T09:05:03.605Z,9.77
2017-11-01T09:06:04.223Z,9.84
2017-11-01T09:07:04.833Z,9.89
2017-11-01T09:08:05.445Z,9.92
2017-11-01T09:09:06.056Z,9.99
2017-11-01T09:10:06.671Z,10.04
2017-11-01T09:11:07.290Z,9.99
2017-11-01T09:12:07.900Z,10.13
2017-11-01T09:13:08.514Z,10.16
2017-11-01T09:14:09.157Z,10.23
2017-11-01T09:15:09.772Z,10.37
2017-11-01T09:16:10.386Z,10.41
2017-11-01T09:17:10.999Z,10.42
2017-11-01T09:18:11.614Z,10.37
2017-11-01T09:19:12.264Z,10.44
2017-11-01T09:20:12.874Z,10.48
2017-11-01T09:21:13.488Z,10.59
2017-11-01T09:22:14.109Z,10.63
2017-11-01T09:23:14.758Z,10.56
2017-11-01T09:24:15.400Z,10.64
2017-11-01T09:25:16.014Z,10.75
2017-11-01T09:26:16.628Z,10.68
2017-11-01T09:27:17.243Z,10.72
2017-11-01T09:28:17.869Z,10.87
2017-11-01T09:29:18.480Z,10.86
2017-11-01T09:30:19.091Z,10.90
2017-11-01T09:31:19.703Z,10.84
2017-11-01T09:32:20.318Z,10.97
2017-11-01T09:33:20.933Z,10.96
2017-11-01T09:34:21.547Z,10.87
2017-11-01T09:35:22.163Z,10.79
2017-11-01T09:36:22.776Z,10.89
2017-11-01T09:37:23.390Z,10.96
2017-11-01T09:38:24.007Z,11.04
2017-11-01T09:39:24.619Z,11.18
2017-11-01T09:40:25.240Z,11.32
2017-11-01T09:41:25.852Z,11.37
2017-11-01T09:42:26.464Z,11.36
2017-11-01T09:43:27.083Z,11.43
2017-11-01T09:44:27.697Z,11.51
2017-11-01T09:45:28.310Z,11.62
2017-11-01T09:46:28.931Z,11.66
2017-11-01T09:47:29.542Z,11.62
2017-11-01T09:48:30.164Z,11.69
2017-11-01T09:49:30.815Z,11.84
2017-11-01T09:50:31.431Z,11.95
2017-11-01T09:51:32.050Z,12.03
2017-11-01T09:52:32.667Z,12.10
2017-11-01T09:53:33.279Z,12.22
2017-11-01T09:54:33.899Z,12.25
2017-11-01T09:55:34.511Z,12.22
2017-11-01T09:56:35.129Z,12.22
2017-11-01T09:57:35.744Z,12.27
2017-11-01T09:58:36.370Z,12.29
2017-11-01T09:59:36.981Z,12.46
2017-11-01T10:00:37.598Z,12.47
2017-11-01T10:01:38.219Z,12.53
2017-11-01T10:02:38.830Z,12.72
2017-11-01T10:03:39.453Z,12.90
2017-11-01T10:04:40.065Z,12.95
2017-11-01T10:05:40.685Z,13.00
2017-11-01T10:06:41.296Z,12.98
2017-11-01T10:07:41.941Z,12.90
2017-11-01T10:08:42.556Z,12.82
2017-11-01T10:09:43.171Z,12.95
2017-11-01T10:10:43.787Z,13.12
2017-11-01T10:11:44.405Z,13.03
2017-11-01T10:12:45.021Z,12.93
2017-11-01T10:13:45.637Z,12.82
2017-11-01T10:14:46.257Z,12.82
2017-11-01T10:15:46.876Z,12.85
2017-11-01T10:16:47.490Z,12.98
2017-11-01T10:17:48.113Z,13.04
2017-11-01T10:18:48.726Z,12.98
2017-11-01T10:19:49.351Z,12.94
2017-11-01T10:20:49.959Z,12.98
2017-11-01T10:21:50.576Z,13.09
2017-11-01T10:22:51.222Z,13.19
2017-11-01T10:23:51.840Z,13.16
2017-11-01T10:24:52.458Z,13.19
2017-11-01T10:25:53.102Z,13.19
2017-11-01T10:26:53.718Z,13.19
2017-11-01T10:27:54.336Z,13.15
2017-11-01T10:28:54.954Z,13.13
2017-11-01T10:29:55.569Z,13.13
2017-11-01T10:30:56.185Z,13.20
2017-11-01T10:31:56.804Z,13.13
2017-11-01T10:32:57.427Z,13.13
2017-11-01T10:33:58.042Z,13.23
2017-11-01T10:34:58.659Z,13.18
2017-11-01T10:35:59.276Z,13.15
2017-11-01T10:36:59.890Z,13.31
2017-11-01T10:38:00.508Z,13.35
2017-11-01T10:39:01.125Z,13.39
2017-11-01T10:40:01.742Z,13.37
2017-11-01T10:41:02.360Z,13.30
2017-11-01T10:42:02.975Z,13.25
2017-11-01T10:43:03.594Z,13.41
2017-11-01T10:44:04.210Z,13.30
2017-11-01T10:45:04.857Z,13.30
2017-11-01T10:46:05.473Z,13.11
2017-11-01T10:47:06.089Z,13.31
2017-11-01T10:48:06.706Z,13.19
2017-11-01T10:49:07.322Z,13.27
2017-11-01T10:50:07.940Z,13.19
2017-11-01T10:51:08.559Z,13.27
2017-11-01T10:52:09.176Z,13.22
2017-11-01T10:53:09.790Z,13.15
2017-11-01T10:54:10.412Z,13.28
2017-11-01T10:55:11.027Z,13.31
2017-11-01T10:56:11.656Z,13.27
2017-11-01T10:57:12.272Z,13.31
2017-11-01T10:58:12.888Z,13.39
2017-11-01T10:59:13.502Z,13.38
2017-11-01T11:00:14.117Z,13.57
2017-11-01T11:01:14.764Z,13.59
2017-11-01T11:02:15.380Z,13.62
2017-11-01T11:03:15.997Z,13.79
2017-11-01T11:04:16.614Z,14.00
2017-11-01T11:05:17.230Z,14.26
2017-11-01T11:06:17.847Z,14.32
2017-11-01T11:07:18.462Z,14.41
2017-11-01T11:08:19.108Z,14.32
2017-11-01T11:09:19.724Z,14.35
2017-11-01T11:10:20.341Z,14.36
2017-11-01T11:11:20.961Z,14.20
2017-11-01T11:12:21.576Z,14.15
2017-11-01T11:13:22.193Z,14.12
2017-11-01T11:14:22.813Z,13.96
2017-11-01T11:15:23.432Z,13.78
2017-11-01T11:16:24.077Z,13.68
2017-11-01T11:17:24.695Z,13.65
2017-11-01T11:18:25.312Z,13.63
2017-11-01T11:19:25.934Z,13.65
2017-11-01T11:20:26.555Z,13.70
2017-11-01T11:21:27.176Z,13.67
2017-11-01T11:22:27.793Z,13.71
2017-11-01T11:23:28.408Z,13.79
2017-11-01T11:24:29.027Z,13.74
2017-11-01T11:25:29.689Z,13.78
2017-11-01T11:26:30.300Z,13.90
2017-11-01T11:27:30.920Z,13.95
2017-11-01T11:28:31.538Z,13.99
2017-11-01T11:29:32.161Z,14.05
2017-11-01T11:30:32.785Z,14.20
2017-11-01T11:31:33.391Z,14.22
2017-11-01T11:32:34.010Z,14.25
2017-11-01T11:33:34.628Z,14.32
2017-11-01T11:34:35.245Z,14.51
2017-11-01T11:35:35.866Z,14.65
2017-11-01T11:36:36.480Z,14.58
2017-11-01T11:37:37.104Z,14.48
2017-11-01T11:38:37.719Z,14.53
2017-11-01T11:39:38.343Z,14.63
2017-11-01T11:40:38.962Z,14.78
2017-11-01T11:41:39.619Z,14.96
2017-11-01T11:42:40.264Z,14.97
2017-11-01T11:43:40.878Z,14.89
2017-11-01T11:44:41.500Z,14.85
2017-11-01T11:45:42.153Z,14.68
2017-11-01T11:46:42.766Z,14.48
2017-11-01T11:47:43.387Z,14.43
2017-11-01T11:48:44.034Z,14.41
2017-11-01T11:49:44.650Z,14.33
2017-11-01T11:50:45.267Z,14.20
2017-11-01T11:51:45.898Z,14.20
2017-11-01T11:52:46.516Z,14.25
2017-11-01T11:53:47.133Z,14.26
2017-11-01T11:54:47.755Z,14.29
2017-11-01T11:55:48.406Z,14.40
2017-11-01T11:56:49.027Z,14.48
2017-11-01T11:57:49.640Z,14.54
2017-11-01T11:58:50.265Z,14.65
2017-11-01T11:59:50.879Z,14.70
2017-11-01T12:00:51.537Z,14.81
2017-11-01T12:01:52.162Z,14.86
2017-11-01T12:02:52.783Z,15.03
2017-11-01T12:03:53.407Z,15.14
2017-11-01T12:04:54.029Z,15.29
2017-11-01T12:05:54.642Z,15.46
2017-11-01T12:06:55.259Z,15.49
2017-11-01T12:07:55.913Z,15.47
2017-11-01T12:08:56.527Z,15.39
2017-11-01T12:09:57.144Z,15.24
2017-11-01T12:10:57.768Z,15.03
2017-11-01T12:11:58.385Z,15.02
2017-11-01T12:12:59.009Z,14.81
2017-11-01T12:13:59.625Z,14.65
2017-11-01T12:15:00.242Z,14.65
2017-11-01T12:16:00.860Z,14.68
2017-11-01T12:17:01.483Z,14.96
2017-11-01T12:18:02.132Z,15.10
2017-11-01T12:19:02.756Z,15.17
2017-11-01T12:20:03.372Z,15.31
2017-11-01T12:21:03.994Z,15.55
2017-11-01T12:22:04.609Z,15.70
2017-11-01T12:23:05.234Z,15.77
2017-11-01T12:24:05.850Z,15.68
2017-11-01T12:25:06.475Z,15.62
2017-11-01T12:26:07.133Z,15.64
2017-11-01T12:27:07.760Z,15.67
2017-11-01T12:28:08.384Z,15.75
2017-11-01T12:29:09.000Z,15.88
2017-11-01T12:30:09.622Z,15.91
2017-11-01T12:31:10.239Z,15.90
2017-11-01T12:32:10.858Z,15.88
2017-11-01T12:33:11.488Z,16.00
2017-11-01T12:34:12.106Z,16.23
2017-11-01T12:35:12.733Z,16.47
2017-11-01T12:36:13.387Z,16.64
2017-11-01T12:37:14.004Z,16.72
2017-11-01T12:38:14.622Z,16.65
2017-11-01T12:39:15.242Z,16.54
2017-11-01T12:40:15.863Z,16.53
2017-11-01T12:41:16.513Z,16.47
2017-11-01T12:42:17.133Z,16.56
2017-11-01T12:43:17.785Z,16.69
2017-11-01T12:44:18.402Z,16.84
2017-11-01T12:45:19.025Z,16.86
2017-11-01T12:46:19.644Z,16.83
2017-11-01T12:47:20.265Z,16.74
2017-11-01T12:48:20.883Z,16.58
2017-11-01T12:49:21.505Z,16.51
2017-11-01T12:50:22.127Z,16.51
2017-11-01T12:51:22.743Z,16.54
2017-11-01T12:52:23.364Z,16.53
2017-11-01T12:53:23.983Z,16.42
2017-11-01T12:54:24.608Z,16.26
2017-11-01T12:55:25.223Z,15.94
2017-11-01T12:56:25.847Z,15.95
2017-11-01T12:57:26.521Z,15.91
2017-11-01T12:58:27.134Z,15.86
2017-11-01T12:59:27.755Z,15.88
2017-11-01T13:00:28.376Z,15.72
2017-11-01T13:01:28.997Z,15.62
2017-11-01T13:02:29.623Z,15.77
2017-11-01T13:03:30.246Z,15.98
2017-11-01T13:04:30.862Z,16.02
2017-11-01T13:05:31.486Z,16.23
2017-11-01T13:06:32.106Z,16.31
2017-11-01T13:07:32.731Z,16.32
2017-11-01T13:08:33.347Z,16.33
2017-11-01T13:09:33.969Z,16.35
2017-11-01T13:10:34.587Z,16.38
2017-11-01T13:11:35.214Z,16.35
2017-11-01T13:12:35.836Z,16.38
2017-11-01T13:13:36.453Z,16.41
2017-11-01T13:14:37.074Z,16.49
2017-11-01T13:15:37.705Z,16.47
2017-11-01T13:16:38.347Z,16.60
2017-11-01T13:17:38.966Z,16.72
2017-11-01T13:18:39.591Z,16.69